Main page
METAR-TAF:

METAR-TAF

Airports :

Rarotonga, Cook Islands

Rarotonga International Airport

latitude: 21-12S, longitude: 159-49W, elevation: 7 m

Current weather observation

The report was made 44 minutes ago, at 02:00 UTC
Wind 9 kt from the East
Temperature 27°C
Humidity 84%
Pressure 1011 hPa
Visibility 10 km or more
Scattered clouds at a height of 1500 ft
light rain showers

METAR: NCRG 300200Z 09009KT 9999 -SHRA SCT015 27/24 Q1011 RMK RERA

Time: 16:44 (02:44 UTC)

Forecast

The report was made 4 hours and 15 minutes ago, at 22:29 UTC
Forecast valid from 30 at 00 UTC to 30 at 24 UTC
Wind 10 kt from the East
Visibility 10 km or more
Scattered clouds at a height of 1500 ft
Broken clouds at a height of 4000 ft
light rain showers
Probability 30% :
Temporary
from 30 at 00 UTC to 30 at 18 UTC
Visibility: 3000 m
Broken clouds at a height of 1200 ft
Few clouds at a height of 1500 ft, Cumulonimbus.
thunderstorm, rain

TAF: NCRG 292229Z 3000/3024 09010KT 9999 -SHRA SCT015 BKN040 PROB30 TEMPO 3000/3018 3000 TSRA BKN012 FEW015CB

Weather observations and forecasts of more than 4000 airports (METAR and TAF reports).

The available stations are represented by yellow and red dots on the map.

Hover mouse over dot to see the name of the station.

Then click to see weather observations and forecasts.

To change the map : click on the green buttons with a black cross to zoom in, on the green button with a dash to zoom out, or on the green arrows for adjacent maps.


METAR-TAF: